Time;durP1;ratioP1;P1;durP2;ratioP2;P2;SDS_P1;SDS_P2;PMS_P1;PMS_P2;Temp;Humidity;BMP_temperature;BMP_pressure;BME280_temperature;BME280_humidity;BME280_pressure;Samples;Min_cycle;Max_cycle;Signal;HPM_P1;HPM_P2
2022/03/05 00:00:39;;;;;;;13.45;6.57;;;;;;;;;;5058726;28;20032;-94
2022/03/05 00:03:05;;;;;;;11.75;6.38;;;;;;;;;;5074974;28;20033;-92
2022/03/05 00:05:31;;;;;;;13.70;6.13;;;;;;;;;;5058116;28;20127;-93
2022/03/05 00:07:58;;;;;;;10.70;5.85;;;;;;;;;;5075415;28;20044;-94
2022/03/05 00:10:24;;;;;;;10.95;6.50;;;;;;;;;;5075779;28;20483;-94
2022/03/05 00:12:51;;;;;;;11.90;6.30;;;;;;;;;;5058602;28;20055;-92
2022/03/05 00:15:18;;;;;;;11.27;6.70;;;;;;;;;;5075029;28;20048;-94
2022/03/05 00:17:44;;;;;;;12.57;6.63;;;;;;;;;;5074532;28;20131;-91
2022/03/05 00:20:10;;;;;;;13.23;6.57;;;;;;;;;;5058101;28;20068;-92
2022/03/05 00:22:37;;;;;;;10.77;6.40;;;;;;;;;;5075117;28;20117;-93
2022/03/05 00:25:04;;;;;;;10.32;5.88;;;;;;;;;;5057925;28;20037;-91
2022/03/05 00:27:30;;;;;;;12.05;6.07;;;;;;;;;;5074876;28;20076;-93
2022/03/05 00:29:56;;;;;;;14.23;7.32;;;;;;;;;;5075339;28;20123;-95
2022/03/05 00:32:22;;;;;;;14.98;7.90;;;;;;;;;;5076676;28;20568;-94
2022/03/05 00:34:48;;;;;;;18.17;8.73;;;;;;;;;;5057681;28;20040;-94
2022/03/05 00:37:14;;;;;;;21.52;11.02;;;;;;;;;;5057768;28;20044;-95
2022/03/05 00:39:40;;;;;;;22.70;11.10;;;;;;;;;;5074070;28;20041;-94
2022/03/05 00:42:06;;;;;;;23.65;11.73;;;;;;;;;;5074697;28;20051;-94
2022/03/05 00:44:32;;;;;;;23.13;10.52;;;;;;;;;;5074440;28;20041;-95
2022/03/05 00:46:59;;;;;;;20.83;11.60;;;;;;;;;;5074388;28;20043;-94
2022/03/05 00:49:25;;;;;;;20.88;10.60;;;;;;;;;;5057705;28;20365;-93
2022/03/05 00:51:52;;;;;;;20.27;11.30;;;;;;;;;;5074770;28;20036;-93
2022/03/05 00:54:18;;;;;;;23.45;11.75;;;;;;;;;;5074135;28;20045;-95
2022/03/05 00:56:44;;;;;;;24.85;12.23;;;;;;;;;;5074000;28;20052;-94
2022/03/05 00:59:10;;;;;;;22.17;11.63;;;;;;;;;;5057426;28;20040;-95
2022/03/05 01:01:36;;;;;;;21.38;10.95;;;;;;;;;;5073765;28;20032;-94
2022/03/05 01:04:02;;;;;;;21.30;10.88;;;;;;;;;;5073918;28;20494;-94
2022/03/05 01:06:30;;;;;;;19.38;8.90;;;;;;;;;;5087563;28;20045;-93
2022/03/05 01:08:56;;;;;;;18.88;8.27;;;;;;;;;;5074847;28;20044;-93
2022/03/05 01:11:23;;;;;;;14.10;7.28;;;;;;;;;;5057099;28;20033;-92
2022/03/05 01:13:49;;;;;;;16.63;7.53;;;;;;;;;;5073797;28;20060;-92
2022/03/05 01:16:15;;;;;;;14.60;7.28;;;;;;;;;;5073454;28;20123;-92
2022/03/05 01:18:41;;;;;;;12.85;7.07;;;;;;;;;;5073391;28;20064;-93
2022/03/05 01:21:07;;;;;;;13.45;7.15;;;;;;;;;;5073477;28;20066;-92
2022/03/05 01:23:33;;;;;;;13.95;7.07;;;;;;;;;;5056882;28;20044;-93
2022/03/05 01:25:59;;;;;;;13.32;6.53;;;;;;;;;;5057026;28;20127;-93
2022/03/05 01:28:25;;;;;;;16.65;7.93;;;;;;;;;;5073739;28;20134;-94
2022/03/05 01:30:51;;;;;;;13.32;7.28;;;;;;;;;;5073807;28;20036;-94
2022/03/05 01:33:17;;;;;;;14.57;7.70;;;;;;;;;;5073744;28;20047;-93
2022/03/05 01:35:46;;;;;;;14.02;7.72;;;;;;;;;;5073240;28;20051;-94
2022/03/05 01:38:12;;;;;;;14.38;7.55;;;;;;;;;;5056924;28;20045;-95
2022/03/05 01:40:39;;;;;;;13.48;7.20;;;;;;;;;;5056687;28;20103;-93
2022/03/05 01:43:05;;;;;;;13.27;7.40;;;;;;;;;;5073341;28;20036;-93
2022/03/05 01:45:31;;;;;;;12.93;7.03;;;;;;;;;;5056272;28;20116;-94
2022/03/05 01:47:58;;;;;;;14.90;7.88;;;;;;;;;;5073722;28;20036;-95
2022/03/05 01:50:24;;;;;;;14.30;7.45;;;;;;;;;;5056536;28;20041;-94
2022/03/05 01:52:50;;;;;;;15.45;7.00;;;;;;;;;;5056824;28;20080;-93
2022/03/05 01:55:16;;;;;;;12.02;6.93;;;;;;;;;;5073539;28;20052;-94
2022/03/05 01:57:43;;;;;;;12.18;7.30;;;;;;;;;;5056571;28;20105;-93
2022/03/05 02:00:09;;;;;;;12.40;7.15;;;;;;;;;;5072483;28;20483;-92
2022/03/05 02:02:35;;;;;;;12.98;7.15;;;;;;;;;;5073230;28;20369;-92
2022/03/05 02:05:01;;;;;;;13.00;6.97;;;;;;;;;;5055977;28;20200;-95
2022/03/05 02:07:28;;;;;;;13.18;7.07;;;;;;;;;;5072544;28;20269;-93
2022/03/05 02:09:54;;;;;;;12.98;7.05;;;;;;;;;;5072946;28;20044;-93
2022/03/05 02:12:27;;;;;;;12.52;6.05;;;;;;;;;;5056283;28;20037;-94
2022/03/05 02:14:53;;;;;;;11.80;6.30;;;;;;;;;;5056335;28;20121;-93
2022/03/05 02:17:18;;;;;;;12.57;7.13;;;;;;;;;;5072784;28;20501;-91
2022/03/05 02:19:44;;;;;;;13.20;7.13;;;;;;;;;;5072586;28;20037;-93
2022/03/05 02:22:10;;;;;;;14.18;7.38;;;;;;;;;;5056275;28;20036;-93
2022/03/05 02:24:37;;;;;;;12.15;7.30;;;;;;;;;;5072814;28;20045;-94
2022/03/05 02:27:04;;;;;;;13.32;7.05;;;;;;;;;;5055999;28;20437;-94
2022/03/05 02:29:34;;;;;;;11.50;6.47;;;;;;;;;;5055506;28;20036;-92
2022/03/05 02:32:00;;;;;;;11.27;6.25;;;;;;;;;;5072686;28;20051;-94
2022/03/05 02:34:26;;;;;;;13.63;6.18;;;;;;;;;;5073227;28;20506;-94
2022/03/05 02:36:52;;;;;;;13.35;7.38;;;;;;;;;;5056173;28;20059;-95
2022/03/05 02:39:18;;;;;;;11.35;6.72;;;;;;;;;;5072730;28;20551;-93
2022/03/05 02:41:44;;;;;;;11.48;7.00;;;;;;;;;;5072563;28;20103;-94
2022/03/05 02:44:11;;;;;;;11.85;6.43;;;;;;;;;;5072379;28;20119;-95
2022/03/05 02:46:37;;;;;;;12.65;6.68;;;;;;;;;;5074128;28;20062;-91
2022/03/05 02:49:03;;;;;;;14.70;6.88;;;;;;;;;;5077010;28;20059;-93
2022/03/05 02:51:30;;;;;;;12.10;6.15;;;;;;;;;;5055729;28;20032;-94
2022/03/05 02:53:56;;;;;;;12.48;6.82;;;;;;;;;;5073027;28;20127;-93
2022/03/05 02:56:25;;;;;;;13.15;7.03;;;;;;;;;;5072998;28;20486;-94
2022/03/05 02:58:51;;;;;;;11.65;6.47;;;;;;;;;;5072305;28;20045;-96
2022/03/05 03:01:17;;;;;;;11.82;6.68;;;;;;;;;;5055377;28;20099;-93
2022/03/05 03:03:43;;;;;;;14.13;7.60;;;;;;;;;;5072104;28;20041;-94
2022/03/05 03:06:09;;;;;;;12.02;6.50;;;;;;;;;;5055186;28;20089;-93
2022/03/05 03:08:35;;;;;;;13.02;6.53;;;;;;;;;;5055305;28;20142;-94
2022/03/05 03:11:01;;;;;;;12.55;6.45;;;;;;;;;;5055219;28;20087;-94
2022/03/05 03:13:27;;;;;;;13.07;7.10;;;;;;;;;;5056166;28;20044;-94
2022/03/05 03:15:53;;;;;;;13.73;5.97;;;;;;;;;;5055483;28;20216;-93
2022/03/05 03:18:19;;;;;;;12.02;6.28;;;;;;;;;;5072199;28;20048;-92
2022/03/05 03:20:45;;;;;;;15.27;6.80;;;;;;;;;;5074120;28;20200;-93
2022/03/05 03:23:11;;;;;;;11.63;6.40;;;;;;;;;;5059346;28;20122;-92
2022/03/05 03:25:41;;;;;;;12.63;6.70;;;;;;;;;;5059133;28;20462;-93
2022/03/05 03:28:07;;;;;;;11.45;5.97;;;;;;;;;;5059526;28;20040;-93
2022/03/05 03:30:34;;;;;;;13.93;6.90;;;;;;;;;;5075834;28;20086;-93
2022/03/05 03:33:00;;;;;;;12.98;6.85;;;;;;;;;;5075834;28;20040;-93
2022/03/05 03:35:27;;;;;;;13.25;6.85;;;;;;;;;;5058622;28;20070;-93
2022/03/05 03:37:53;;;;;;;12.70;6.78;;;;;;;;;;5075617;28;20378;-93
2022/03/05 03:40:20;;;;;;;11.00;6.38;;;;;;;;;;5075278;28;20052;-94
2022/03/05 03:42:48;;;;;;;12.02;6.78;;;;;;;;;;5058649;28;20071;-92
2022/03/05 03:45:14;;;;;;;13.13;6.07;;;;;;;;;;5058445;28;20037;-92
2022/03/05 03:47:42;;;;;;;17.45;6.63;;;;;;;;;;5058478;28;20250;-95
2022/03/05 03:50:08;;;;;;;13.55;6.60;;;;;;;;;;5058555;28;20274;-92
2022/03/05 03:52:34;;;;;;;13.00;6.72;;;;;;;;;;5058510;28;20086;-92
2022/03/05 03:55:01;;;;;;;14.60;6.90;;;;;;;;;;5059188;28;20037;-94
2022/03/05 03:57:27;;;;;;;12.88;6.18;;;;;;;;;;5058155;28;20040;-94
2022/03/05 03:59:53;;;;;;;14.52;6.72;;;;;;;;;;5075658;28;20048;-93
2022/03/05 04:02:20;;;;;;;12.63;6.45;;;;;;;;;;5075190;28;20047;-92
2022/03/05 04:04:47;;;;;;;12.55;6.93;;;;;;;;;;5058422;28;20040;-93
2022/03/05 04:09:57;;;;;;;11.40;6.07;;;;;;;;;;5075494;28;20403;-94
2022/03/05 04:12:24;;;;;;;11.55;6.32;;;;;;;;;;5074840;28;20044;-94
2022/03/05 04:14:50;;;;;;;11.05;6.13;;;;;;;;;;5075122;28;20040;-93
2022/03/05 04:17:16;;;;;;;12.00;6.88;;;;;;;;;;5057978;28;20119;-92
2022/03/05 04:19:42;;;;;;;11.85;5.90;;;;;;;;;;5058493;28;20482;-93
2022/03/05 04:22:08;;;;;;;11.85;6.47;;;;;;;;;;5059572;28;20033;-93
2022/03/05 04:24:35;;;;;;;12.82;5.88;;;;;;;;;;5058055;28;20040;-94
2022/03/05 04:27:01;;;;;;;13.02;6.47;;;;;;;;;;5067243;28;20047;-93
2022/03/05 04:29:28;;;;;;;12.10;6.65;;;;;;;;;;5079403;28;20522;-93
2022/03/05 04:31:54;;;;;;;13.93;6.53;;;;;;;;;;5074315;28;20044;-93
2022/03/05 04:34:20;;;;;;;13.15;6.18;;;;;;;;;;5057876;28;20045;-93
2022/03/05 04:36:46;;;;;;;12.75;6.18;;;;;;;;;;5057831;28;20171;-94
2022/03/05 04:39:12;;;;;;;11.02;6.03;;;;;;;;;;5057603;28;20102;-93
2022/03/05 04:41:39;;;;;;;11.77;6.18;;;;;;;;;;5057648;28;20048;-94
2022/03/05 04:44:05;;;;;;;12.60;6.20;;;;;;;;;;5057773;28;20044;-92
2022/03/05 04:46:31;;;;;;;11.27;6.60;;;;;;;;;;5074363;28;20032;-92
2022/03/05 04:48:57;;;;;;;11.77;6.32;;;;;;;;;;5057484;28;20433;-92
2022/03/05 04:51:24;;;;;;;14.57;6.07;;;;;;;;;;5073712;28;20072;-93
2022/03/05 04:53:50;;;;;;;12.07;7.00;;;;;;;;;;5073845;28;20559;-92
2022/03/05 04:56:16;;;;;;;11.93;6.45;;;;;;;;;;5073772;28;20076;-93
2022/03/05 04:58:42;;;;;;;11.95;6.07;;;;;;;;;;5056972;28;20043;-92
2022/03/05 05:01:08;;;;;;;11.15;6.63;;;;;;;;;;5056851;28;20040;-93
2022/03/05 05:03:34;;;;;;;10.02;5.93;;;;;;;;;;5073756;28;20043;-92
2022/03/05 05:06:00;;;;;;;14.20;6.65;;;;;;;;;;5056935;28;20041;-92
2022/03/05 05:08:26;;;;;;;11.38;6.30;;;;;;;;;;5073822;28;20048;-93
2022/03/05 05:10:52;;;;;;;10.90;5.90;;;;;;;;;;5057631;28;20049;-94
2022/03/05 05:13:19;;;;;;;11.50;6.20;;;;;;;;;;5073914;28;20032;-93
2022/03/05 05:15:47;;;;;;;12.88;5.80;;;;;;;;;;5056565;28;20048;-92
2022/03/05 05:18:19;;;;;;;11.90;6.20;;;;;;;;;;5073741;28;20064;-94
2022/03/05 05:20:45;;;;;;;14.35;5.72;;;;;;;;;;5057840;28;20037;-93
2022/03/05 05:23:11;;;;;;;11.20;6.00;;;;;;;;;;5075925;28;20140;-93
2022/03/05 05:25:37;;;;;;;11.00;5.63;;;;;;;;;;5073649;28;20044;-95
2022/03/05 05:28:03;;;;;;;11.38;6.03;;;;;;;;;;5057263;28;20071;-95
2022/03/05 05:30:29;;;;;;;10.60;5.28;;;;;;;;;;5057010;28;20127;-92
2022/03/05 05:32:55;;;;;;;11.98;6.13;;;;;;;;;;5073676;28;20040;-96
2022/03/05 05:35:21;;;;;;;14.23;6.07;;;;;;;;;;5074380;28;20444;-95
2022/03/05 05:37:47;;;;;;;13.32;6.78;;;;;;;;;;5073680;28;20109;-94
2022/03/05 05:40:13;;;;;;;12.98;6.47;;;;;;;;;;5058692;28;20135;-95
2022/03/05 05:42:39;;;;;;;11.10;5.60;;;;;;;;;;5073130;28;20098;-94
2022/03/05 05:45:05;;;;;;;12.48;6.82;;;;;;;;;;5073402;28;20048;-94
2022/03/05 05:47:31;;;;;;;12.30;6.60;;;;;;;;;;5073654;28;20085;-94
2022/03/05 05:49:58;;;;;;;13.90;6.20;;;;;;;;;;5073944;28;20102;-96
2022/03/05 05:52:24;;;;;;;12.43;5.97;;;;;;;;;;5073403;28;20037;-95
2022/03/05 05:54:50;;;;;;;12.27;5.40;;;;;;;;;;5056811;28;20337;-94
2022/03/05 05:57:16;;;;;;;11.73;5.85;;;;;;;;;;5073291;28;20387;-92
2022/03/05 05:59:42;;;;;;;12.68;5.57;;;;;;;;;;5072889;28;20040;-95
2022/03/05 06:02:08;;;;;;;11.90;6.30;;;;;;;;;;5056444;28;20036;-95
2022/03/05 06:04:34;;;;;;;19.05;6.30;;;;;;;;;;5073615;28;20036;-93
2022/03/05 06:07:00;;;;;;;12.90;6.28;;;;;;;;;;5056182;28;20037;-95
2022/03/05 06:09:26;;;;;;;11.50;6.22;;;;;;;;;;5059093;28;20070;-94
2022/03/05 06:11:57;;;;;;;11.63;6.28;;;;;;;;;;5073300;22;20046;-93
2022/03/05 06:14:23;;;;;;;11.82;6.00;;;;;;;;;;5027586;28;20072;-94
2022/03/05 06:16:50;;;;;;;11.98;5.43;;;;;;;;;;5044816;28;20114;-94
2022/03/05 06:19:16;;;;;;;10.10;5.72;;;;;;;;;;5036817;28;20063;-96
2022/03/05 06:21:42;;;;;;;11.02;5.90;;;;;;;;;;5036314;28;20115;-95
2022/03/05 06:24:08;;;;;;;12.25;6.05;;;;;;;;;;5036644;28;20120;-93
2022/03/05 06:26:40;;;;;;;15.10;6.53;;;;;;;;;;5036532;28;20067;-93
2022/03/05 06:29:06;;;;;;;13.25;5.80;;;;;;;;;;5037962;28;20044;-94
2022/03/05 06:31:32;;;;;;;12.13;6.43;;;;;;;;;;5030108;28;20571;-94
2022/03/05 06:33:58;;;;;;;12.82;6.00;;;;;;;;;;5052436;28;20040;-93
2022/03/05 06:36:24;;;;;;;11.57;6.03;;;;;;;;;;5052081;28;20450;-95
2022/03/05 06:38:50;;;;;;;12.23;5.65;;;;;;;;;;5035172;28;20091;-94
2022/03/05 06:41:16;;;;;;;11.80;5.70;;;;;;;;;;5035581;28;20045;-93
2022/03/05 06:43:42;;;;;;;12.68;5.85;;;;;;;;;;5035619;28;20098;-95
2022/03/05 06:46:08;;;;;;;11.48;6.63;;;;;;;;;;5052771;28;20434;-94
2022/03/05 06:48:34;;;;;;;11.38;5.70;;;;;;;;;;5035350;28;20124;-95
2022/03/05 06:51:00;;;;;;;14.30;6.78;;;;;;;;;;5035841;28;20040;-94
2022/03/05 06:53:26;;;;;;;11.95;6.35;;;;;;;;;;5035297;28;20090;-94
2022/03/05 06:55:52;;;;;;;13.45;7.20;;;;;;;;;;5056208;28;20111;-93
2022/03/05 06:58:18;;;;;;;16.20;6.88;;;;;;;;;;5056235;28;20435;-94
2022/03/05 07:00:44;;;;;;;12.48;6.50;;;;;;;;;;5056371;28;20373;-94
2022/03/05 07:03:10;;;;;;;11.90;6.70;;;;;;;;;;5056425;28;20075;-94
2022/03/05 07:05:36;;;;;;;13.10;6.68;;;;;;;;;;5039698;28;20419;-95
2022/03/05 07:08:03;;;;;;;14.32;6.90;;;;;;;;;;5039025;28;20072;-95
2022/03/05 07:10:29;;;;;;;14.55;6.72;;;;;;;;;;5055506;28;20077;-95
2022/03/05 07:12:55;;;;;;;14.85;7.10;;;;;;;;;;5055452;28;20508;-95
2022/03/05 07:15:21;;;;;;;14.15;7.20;;;;;;;;;;5039535;28;20500;-92
2022/03/05 07:17:51;;;;;;;16.15;7.40;;;;;;;;;;5055311;28;20045;-94
2022/03/05 07:20:18;;;;;;;13.20;6.85;;;;;;;;;;5039284;28;20126;-94
2022/03/05 07:22:44;;;;;;;15.20;8.48;;;;;;;;;;5055677;28;20150;-92
2022/03/05 07:25:11;;;;;;;14.35;8.48;;;;;;;;;;5039445;28;20053;-92
2022/03/05 07:27:37;;;;;;;15.45;7.75;;;;;;;;;;5038307;28;20128;-95
2022/03/05 07:30:03;;;;;;;16.05;8.13;;;;;;;;;;5038632;28;20041;-93
2022/03/05 07:32:29;;;;;;;15.60;7.95;;;;;;;;;;5055274;28;20094;-94
2022/03/05 07:34:55;;;;;;;16.15;7.78;;;;;;;;;;5055228;28;20115;-93
2022/03/05 07:37:21;;;;;;;17.45;8.32;;;;;;;;;;5055138;28;20052;-95
2022/03/05 07:39:47;;;;;;;16.00;8.40;;;;;;;;;;5055380;28;20037;-92
2022/03/05 07:42:13;;;;;;;15.93;8.52;;;;;;;;;;5058787;28;20033;-94
2022/03/05 07:44:39;;;;;;;17.67;8.90;;;;;;;;;;5039036;28;20072;-93
2022/03/05 07:47:05;;;;;;;18.23;8.63;;;;;;;;;;5038424;28;20044;-93
2022/03/05 07:49:31;;;;;;;16.00;9.23;;;;;;;;;;5054980;28;20045;-92
2022/03/05 07:51:57;;;;;;;17.35;8.90;;;;;;;;;;5038523;28;20045;-94
2022/03/05 07:54:24;;;;;;;17.00;8.77;;;;;;;;;;5054649;28;20045;-93
2022/03/05 07:56:50;;;;;;;16.45;8.70;;;;;;;;;;5054576;28;20044;-93
2022/03/05 07:59:16;;;;;;;15.90;9.07;;;;;;;;;;5054818;28;20124;-94
2022/03/05 08:01:42;;;;;;;16.85;9.40;;;;;;;;;;5055164;28;20076;-93
2022/03/05 08:04:08;;;;;;;18.35;9.32;;;;;;;;;;5038002;28;20514;-94
2022/03/05 08:06:34;;;;;;;19.08;8.85;;;;;;;;;;5037579;28;20043;-92
2022/03/05 08:09:00;;;;;;;17.00;9.48;;;;;;;;;;5054627;28;20040;-94
2022/03/05 08:11:26;;;;;;;14.68;8.50;;;;;;;;;;5054643;28;20496;-93
2022/03/05 08:13:52;;;;;;;18.17;9.75;;;;;;;;;;5054128;28;20049;-94
2022/03/05 08:16:18;;;;;;;15.77;9.63;;;;;;;;;;5054412;28;20045;-93
2022/03/05 08:18:44;;;;;;;18.02;9.18;;;;;;;;;;5053940;28;20404;-93
2022/03/05 08:21:10;;;;;;;15.60;8.77;;;;;;;;;;5054407;28;20037;-93
2022/03/05 08:23:36;;;;;;;15.32;8.38;;;;;;;;;;5038117;28;20041;-93
2022/03/05 08:26:03;;;;;;;14.90;9.27;;;;;;;;;;5054474;28;20476;-94
2022/03/05 08:28:28;;;;;;;14.18;8.40;;;;;;;;;;5054250;28;20500;-94
2022/03/05 08:30:54;;;;;;;17.38;9.35;;;;;;;;;;5054315;28;20169;-94
2022/03/05 08:33:21;;;;;;;16.75;9.48;;;;;;;;;;5054065;28;20036;-94
2022/03/05 08:35:50;;;;;;;19.65;10.43;;;;;;;;;;5038482;28;20040;-94
2022/03/05 08:38:16;;;;;;;16.23;9.27;;;;;;;;;;5038155;28;20041;-93
2022/03/05 08:40:42;;;;;;;19.08;9.48;;;;;;;;;;5056269;28;20400;-94
2022/03/05 08:43:18;;;;;;;;;;;;;;;;;;;;;
2022/03/05 08:48:31;;;;;;;17.45;9.40;;;;;;;;;;5068751;22;20057;-96
2022/03/05 09:00:41;;;;;;;17.77;9.32;;;;;;;;;;5077950;28;20143;-95
2022/03/05 09:03:07;;;;;;;17.48;9.43;;;;;;;;;;5060591;28;20052;-96
2022/03/05 09:05:42;;;;;;;16.30;9.52;;;;;;;;;;5085385;28;20071;-94
2022/03/05 09:08:33;;;;;;;18.35;10.32;;;;;;;;;;5071378;28;20060;-94
2022/03/05 09:11:02;;;;;;;16.35;10.07;;;;;;;;;;5082873;28;20072;-94
2022/03/05 09:13:30;;;;;;;17.48;9.73;;;;;;;;;;5061468;28;20076;-95
2022/03/05 09:15:56;;;;;;;16.67;10.25;;;;;;;;;;5068779;28;20201;-95
2022/03/05 09:18:30;;;;;;;17.98;10.43;;;;;;;;;;5057720;28;20135;-94
2022/03/05 09:20:58;;;;;;;19.13;10.25;;;;;;;;;;5075121;28;20067;-96
2022/03/05 09:23:42;;;;;;;19.88;10.55;;;;;;;;;;5077204;28;20127;-94
2022/03/05 09:26:08;;;;;;;16.55;9.38;;;;;;;;;;5060963;28;20036;-94
2022/03/05 09:28:36;;;;;;;19.27;11.05;;;;;;;;;;5074921;28;20077;-95
2022/03/05 09:31:05;;;;;;;16.35;10.00;;;;;;;;;;5061224;28;20049;-91
2022/03/05 09:33:31;;;;;;;17.83;10.18;;;;;;;;;;5056948;28;20094;-93
2022/03/05 09:36:00;;;;;;;19.63;10.88;;;;;;;;;;5073784;28;20043;-93
2022/03/05 09:38:26;;;;;;;19.25;11.45;;;;;;;;;;5240979;22;20064;-96
2022/03/05 09:40:53;;;;;;;17.27;10.55;;;;;;;;;;5290406;22;20065;-95
2022/03/05 09:43:19;;;;;;;19.15;10.68;;;;;;;;;;5035609;28;20045;-96
2022/03/05 09:45:45;;;;;;;17.90;10.38;;;;;;;;;;5041498;28;20522;-95
2022/03/05 09:48:18;;;;;;;20.10;10.65;;;;;;;;;;5053973;28;20045;-94
2022/03/05 09:50:46;;;;;;;18.23;11.05;;;;;;;;;;5036702;28;20041;-93
2022/03/05 09:53:12;;;;;;;22.45;11.80;;;;;;;;;;5036403;28;20041;-95
2022/03/05 09:59:18;;;;;;;17.45;10.25;;;;;;;;;;5024137;28;20081;-94
2022/03/05 10:05:13;;;;;;;20.40;11.32;;;;;;;;;;5007902;28;20050;-94
2022/03/05 10:08:08;;;;;;;20.52;10.23;;;;;;;;;;4990672;28;20045;-95
2022/03/05 10:11:06;;;;;;;21.80;11.40;;;;;;;;;;4989686;28;20034;-95
2022/03/05 10:13:39;;;;;;;21.08;11.07;;;;;;;;;;4923714;28;20050;-96
2022/03/05 10:16:22;;;;;;;21.85;11.27;;;;;;;;;;5037312;28;20049;-94
2022/03/05 10:18:49;;;;;;;20.13;11.82;;;;;;;;;;5038672;28;20436;-95
2022/03/05 10:21:16;;;;;;;20.17;11.18;;;;;;;;;;5036702;28;20127;-94
2022/03/05 10:23:47;;;;;;;21.85;11.52;;;;;;;;;;5038165;28;20048;-94
2022/03/05 10:26:14;;;;;;;21.20;11.68;;;;;;;;;;5036008;28;20175;-92
2022/03/05 10:28:40;;;;;;;24.10;11.32;;;;;;;;;;5052588;28;20064;-93
2022/03/05 10:31:09;;;;;;;19.92;11.25;;;;;;;;;;5052905;28;20049;-96
2022/03/05 10:33:35;;;;;;;20.77;11.68;;;;;;;;;;5053891;28;20049;-92
2022/03/05 10:36:18;;;;;;;22.08;10.52;;;;;;;;;;5053380;28;20055;-95
2022/03/05 10:38:44;;;;;;;22.92;11.70;;;;;;;;;;5055179;28;20051;-94
2022/03/05 10:41:17;;;;;;;22.30;12.20;;;;;;;;;;5036196;28;20053;-93
2022/03/05 10:43:43;;;;;;;26.10;12.02;;;;;;;;;;5035871;28;20041;-95
2022/03/05 10:46:09;;;;;;;21.75;11.07;;;;;;;;;;5036447;28;20037;-94
2022/03/05 10:48:41;;;;;;;24.05;12.07;;;;;;;;;;5035843;28;20037;-92
2022/03/05 10:51:19;;;;;;;23.38;12.82;;;;;;;;;;5052426;28;20127;-95
2022/03/05 10:53:47;;;;;;;23.23;11.60;;;;;;;;;;5053098;28;20091;-95
2022/03/05 10:56:26;;;;;;;21.33;12.32;;;;;;;;;;5057043;28;20041;-93
2022/03/05 10:59:03;;;;;;;24.23;12.60;;;;;;;;;;5039618;28;20037;-92
2022/03/05 11:01:30;;;;;;;21.38;11.82;;;;;;;;;;5035968;28;20123;-94
2022/03/05 11:03:56;;;;;;;24.77;12.77;;;;;;;;;;5052608;28;20147;-94
2022/03/05 11:06:23;;;;;;;22.90;11.90;;;;;;;;;;5052351;28;20123;-93
2022/03/05 11:08:49;;;;;;;24.23;12.55;;;;;;;;;;5052679;28;20527;-96
2022/03/05 11:11:16;;;;;;;19.52;11.75;;;;;;;;;;5052392;28;20435;-95
2022/03/05 11:13:43;;;;;;;24.73;12.07;;;;;;;;;;5052293;28;20044;-94
2022/03/05 11:16:09;;;;;;;21.88;11.88;;;;;;;;;;5051943;28;20051;-95
2022/03/05 11:18:36;;;;;;;22.08;12.25;;;;;;;;;;5052143;28;20079;-93
2022/03/05 11:21:03;;;;;;;22.15;12.77;;;;;;;;;;5053340;28;20033;-94
2022/03/05 11:23:29;;;;;;;19.55;10.80;;;;;;;;;;5052186;28;20040;-95
2022/03/05 11:25:55;;;;;;;20.67;12.05;;;;;;;;;;5052048;28;20040;-95
2022/03/05 11:28:24;;;;;;;18.23;10.70;;;;;;;;;;5036005;28;20381;-91
2022/03/05 11:30:55;;;;;;;20.23;11.27;;;;;;;;;;5052500;28;20048;-94
2022/03/05 11:33:23;;;;;;;22.10;11.98;;;;;;;;;;5035561;28;20110;-95
2022/03/05 11:35:49;;;;;;;20.60;11.85;;;;;;;;;;5054092;28;20045;-94
2022/03/05 11:38:34;;;;;;;23.90;12.23;;;;;;;;;;5036066;28;20393;-95
2022/03/05 11:41:00;;;;;;;20.90;12.18;;;;;;;;;;5036491;28;20057;-94
2022/03/05 11:43:27;;;;;;;22.70;12.00;;;;;;;;;;5056652;28;20045;-95
2022/03/05 11:45:58;;;;;;;21.73;11.00;;;;;;;;;;5055650;28;20036;-95
2022/03/05 11:48:27;;;;;;;20.55;12.00;;;;;;;;;;5040746;28;20543;-94
2022/03/05 11:50:54;;;;;;;21.35;12.10;;;;;;;;;;5056414;28;20404;-93
2022/03/05 11:53:20;;;;;;;24.17;13.50;;;;;;;;;;5056192;28;20037;-95
2022/03/05 11:55:47;;;;;;;23.75;13.18;;;;;;;;;;5056926;28;20055;-96
2022/03/05 11:58:13;;;;;;;19.95;11.68;;;;;;;;;;5056899;28;20073;-95
2022/03/05 12:00:41;;;;;;;23.08;13.65;;;;;;;;;;5039385;28;20377;-94
2022/03/05 12:03:07;;;;;;;22.38;12.40;;;;;;;;;;5038511;28;20048;-94
2022/03/05 12:05:33;;;;;;;23.38;12.82;;;;;;;;;;5038545;28;20044;-94
2022/03/05 12:08:00;;;;;;;23.00;13.10;;;;;;;;;;5056676;28;20040;-94
2022/03/05 12:10:29;;;;;;;22.05;12.52;;;;;;;;;;5062617;28;20070;-95
2022/03/05 12:12:55;;;;;;;22.33;12.82;;;;;;;;;;5057964;28;20135;-96
2022/03/05 12:15:41;;;;;;;28.30;12.57;;;;;;;;;;5056805;28;20137;-94
2022/03/05 12:18:08;;;;;;;;;;;;;;;;;;5040442;28;20049;-93
2022/03/05 12:20:38;;;;;;;23.20;14.10;;;;;;;;;;5037711;28;19916;-94
2022/03/05 12:23:10;;;;;;;24.38;12.63;;;;;;;;;;5039171;28;20048;-92
2022/03/05 12:25:38;;;;;;;24.98;13.88;;;;;;;;;;5055442;28;20040;-94
2022/03/05 12:28:05;;;;;;;22.42;13.55;;;;;;;;;;5056055;28;20090;-91
2022/03/05 12:30:33;;;;;;;25.27;13.60;;;;;;;;;;5039631;28;20484;-92
2022/03/05 12:33:06;;;;;;;23.27;13.60;;;;;;;;;;5038628;28;20048;-94
2022/03/05 12:35:32;;;;;;;23.27;13.80;;;;;;;;;;5046250;28;20041;-93
2022/03/05 12:37:59;;;;;;;22.35;12.55;;;;;;;;;;5060481;28;20041;-93
2022/03/05 12:40:26;;;;;;;22.08;12.50;;;;;;;;;;5054298;28;20572;-91
2022/03/05 12:42:52;;;;;;;24.52;14.40;;;;;;;;;;5037786;28;20043;-93
2022/03/05 12:45:24;;;;;;;25.80;13.70;;;;;;;;;;5055118;28;20037;-92
2022/03/05 12:47:50;;;;;;;24.70;13.73;;;;;;;;;;5037319;28;20045;-95
2022/03/05 12:50:25;;;;;;;25.50;14.43;;;;;;;;;;5054095;28;20265;-94
2022/03/05 12:52:59;;;;;;;21.38;12.70;;;;;;;;;;5037329;28;20132;-93
2022/03/05 12:55:28;;;;;;;22.73;13.32;;;;;;;;;;5053860;28;20045;-92
2022/03/05 12:57:56;;;;;;;22.95;13.98;;;;;;;;;;5054081;28;20492;-94
2022/03/05 13:00:22;;;;;;;22.10;13.38;;;;;;;;;;5037313;28;20587;-93
2022/03/05 13:02:50;;;;;;;24.67;13.57;;;;;;;;;;5037656;28;20068;-92
2022/03/05 13:05:17;;;;;;;24.60;13.50;;;;;;;;;;5055234;28;20041;-94
2022/03/05 13:07:44;;;;;;;25.60;13.63;;;;;;;;;;5053725;28;20519;-94
2022/03/05 13:10:11;;;;;;;24.33;14.05;;;;;;;;;;5037503;28;20082;-93
2022/03/05 13:12:40;;;;;;;22.63;12.88;;;;;;;;;;5036769;28;20507;-94
2022/03/05 13:15:07;;;;;;;23.88;14.57;;;;;;;;;;5053740;28;20097;-93
2022/03/05 13:17:34;;;;;;;23.02;12.95;;;;;;;;;;5053676;28;20065;-93
2022/03/05 13:20:01;;;;;;;21.67;13.35;;;;;;;;;;5053551;28;20049;-93
2022/03/05 13:22:27;;;;;;;22.70;13.63;;;;;;;;;;5053382;28;20087;-94
2022/03/05 13:24:53;;;;;;;22.30;13.43;;;;;;;;;;5053367;28;20044;-93
2022/03/05 13:27:26;;;;;;;23.55;13.77;;;;;;;;;;5053487;28;20116;-93
2022/03/05 13:29:53;;;;;;;22.67;13.00;;;;;;;;;;5036717;28;20123;-93
2022/03/05 13:32:19;;;;;;;25.88;13.07;;;;;;;;;;5036796;28;20086;-92
2022/03/05 13:34:45;;;;;;;24.15;13.35;;;;;;;;;;5053253;28;20128;-93
2022/03/05 13:37:11;;;;;;;22.08;13.73;;;;;;;;;;5053548;28;20147;-94
2022/03/05 13:39:37;;;;;;;22.98;13.63;;;;;;;;;;5036790;28;20041;-93
2022/03/05 13:42:15;;;;;;;23.58;13.43;;;;;;;;;;5036316;28;20507;-93
2022/03/05 13:44:41;;;;;;;23.52;14.07;;;;;;;;;;5037073;28;20045;-93
2022/03/05 13:47:08;;;;;;;25.98;14.65;;;;;;;;;;5036490;28;20106;-94
2022/03/05 13:49:34;;;;;;;22.60;13.27;;;;;;;;;;5037053;28;20091;-93
2022/03/05 13:52:02;;;;;;;23.02;13.63;;;;;;;;;;5053251;28;20045;-94
2022/03/05 13:54:37;;;;;;;21.85;13.32;;;;;;;;;;5036691;28;20047;-93
2022/03/05 13:57:03;;;;;;;26.33;13.68;;;;;;;;;;5036533;28;20044;-92
2022/03/05 13:59:39;;;;;;;23.08;14.13;;;;;;;;;;5036481;28;20066;-93
2022/03/05 14:02:06;;;;;;;22.17;13.85;;;;;;;;;;5053379;28;20056;-93
2022/03/05 14:04:33;;;;;;;22.48;13.05;;;;;;;;;;5052944;28;20037;-94
2022/03/05 14:07:03;;;;;;;25.15;13.82;;;;;;;;;;5052893;28;20102;-96
2022/03/05 14:09:35;;;;;;;23.95;14.07;;;;;;;;;;5037351;28;20103;-92
2022/03/05 14:12:01;;;;;;;22.50;14.15;;;;;;;;;;5041762;28;20040;-93
2022/03/05 14:14:34;;;;;;;23.80;14.00;;;;;;;;;;5070019;28;20455;-93
2022/03/05 14:17:00;;;;;;;22.77;13.65;;;;;;;;;;5053844;28;20045;-93
2022/03/05 14:19:27;;;;;;;23.45;13.63;;;;;;;;;;5053191;28;20041;-94
2022/03/05 14:22:07;;;;;;;26.17;14.10;;;;;;;;;;5052877;28;20468;-94
2022/03/05 14:24:33;;;;;;;23.52;13.48;;;;;;;;;;5036473;28;20090;-94
2022/03/05 14:26:59;;;;;;;22.65;14.02;;;;;;;;;;5052484;28;20128;-93
2022/03/05 14:29:27;;;;;;;23.33;13.15;;;;;;;;;;5053096;28;20049;-94
2022/03/05 14:31:53;;;;;;;25.10;14.55;;;;;;;;;;5053092;28;20044;-93
2022/03/05 14:34:21;;;;;;;24.75;14.05;;;;;;;;;;5053244;28;20052;-95
2022/03/05 14:36:47;;;;;;;22.05;13.90;;;;;;;;;;5036147;28;20044;-94
2022/03/05 14:39:13;;;;;;;23.55;13.73;;;;;;;;;;5035899;28;20055;-96
2022/03/05 14:41:39;;;;;;;22.67;13.38;;;;;;;;;;5052336;28;20095;-93
2022/03/05 14:44:05;;;;;;;26.23;15.15;;;;;;;;;;5036183;28;20127;-94
2022/03/05 14:46:31;;;;;;;24.10;13.18;;;;;;;;;;5052426;28;20060;-94
2022/03/05 14:48:57;;;;;;;22.13;13.35;;;;;;;;;;5052739;28;20049;-92